createdAt,value
2022-09-24T00:01:21.598Z,64.40
2022-09-24T00:04:03.005Z,64.50
2022-09-24T00:06:34.193Z,65.30
2022-09-24T00:09:02.350Z,65.10
2022-09-24T00:11:31.062Z,65.20
2022-09-24T00:13:59.389Z,64.80
2022-09-24T00:16:59.958Z,65.40
2022-09-24T00:19:28.133Z,65.90
2022-09-24T00:21:56.631Z,64.60
2022-09-24T00:24:43.251Z,64.60
2022-09-24T00:27:11.721Z,65.30
2022-09-24T00:29:42.900Z,65.80
2022-09-24T00:32:13.864Z,66.00
2022-09-24T00:34:53.680Z,66.80
2022-09-24T00:37:21.749Z,66.90
2022-09-24T00:42:36.284Z,66.60
2022-09-24T00:45:05.407Z,67.30
2022-09-24T00:47:37.343Z,67.00
2022-09-24T00:50:15.516Z,66.70
2022-09-24T00:52:45.398Z,66.10
2022-09-24T00:55:13.709Z,66.40
2022-09-24T00:57:42.099Z,65.70
2022-09-24T01:00:11.941Z,66.60
2022-09-24T01:02:55.272Z,67.30
2022-09-24T01:05:23.315Z,66.60
2022-09-24T01:08:03.329Z,66.10
2022-09-24T01:10:51.365Z,66.50
2022-09-24T01:13:32.314Z,68.20
2022-09-24T01:16:02.825Z,66.90
2022-09-24T01:18:34.551Z,66.20
2022-09-24T01:21:17.076Z,66.90
2022-09-24T01:24:06.950Z,66.90
2022-09-24T01:26:42.175Z,68.00
2022-09-24T01:29:32.253Z,67.20
2022-09-24T01:32:05.847Z,66.50
2022-09-24T01:34:38.679Z,66.50
2022-09-24T01:37:06.912Z,66.50
2022-09-24T01:39:34.952Z,65.90
2022-09-24T01:42:03.012Z,67.00
2022-09-24T01:44:33.527Z,66.40
2022-09-24T01:47:13.636Z,65.90
2022-09-24T01:49:53.742Z,65.50
2022-09-24T01:52:25.258Z,64.80
2022-09-24T01:54:53.333Z,65.00
2022-09-24T01:57:23.741Z,64.50
2022-09-24T02:00:00.924Z,64.90
2022-09-24T02:02:35.249Z,64.90
2022-09-24T02:05:07.752Z,64.60
2022-09-24T02:07:39.745Z,64.10
2022-09-24T02:10:10.965Z,64.60
2022-09-24T02:12:42.411Z,64.70
2022-09-24T02:15:12.960Z,64.70
2022-09-24T02:17:42.949Z,64.50
2022-09-24T02:20:13.217Z,66.20
2022-09-24T02:22:41.317Z,66.80
2022-09-24T02:25:11.184Z,65.70
2022-09-24T02:27:39.209Z,66.20
2022-09-24T02:30:10.095Z,66.00
2022-09-24T02:32:41.094Z,67.60
2022-09-24T02:35:09.688Z,67.50
2022-09-24T02:37:38.681Z,67.40
2022-09-24T02:40:07.793Z,67.50
2022-09-24T02:42:35.930Z,68.20
2022-09-24T02:45:04.680Z,67.50
2022-09-24T02:47:32.743Z,66.80
2022-09-24T02:50:02.725Z,67.10
2022-09-24T02:52:30.755Z,67.60
2022-09-24T02:54:58.812Z,67.20
2022-09-24T02:57:26.894Z,68.20
2022-09-24T02:59:54.993Z,69.30
2022-09-24T03:02:23.159Z,68.90
2022-09-24T03:04:51.936Z,68.20
2022-09-24T03:07:21.848Z,67.80
2022-09-24T03:09:49.899Z,67.50
2022-09-24T03:12:17.922Z,67.10
2022-09-24T03:14:45.965Z,67.40
2022-09-24T03:17:14.007Z,68.20
2022-09-24T03:19:42.062Z,67.40
2022-09-24T03:22:10.088Z,67.20
2022-09-24T03:24:39.503Z,67.40
2022-09-24T03:27:07.531Z,68.40
2022-09-24T03:29:53.247Z,69.30
2022-09-24T03:32:21.609Z,69.00
2022-09-24T03:34:49.667Z,68.40
2022-09-24T03:37:17.703Z,67.60
2022-09-24T03:39:47.150Z,67.40
2022-09-24T03:42:15.154Z,67.00
2022-09-24T03:44:43.220Z,68.40
2022-09-24T03:47:11.242Z,69.30
2022-09-24T03:49:39.347Z,68.60
2022-09-24T03:52:07.412Z,68.30
2022-09-24T03:54:35.669Z,67.20
2022-09-24T03:57:05.226Z,67.10
2022-09-24T03:59:33.297Z,67.70
2022-09-24T04:02:01.433Z,68.60
2022-09-24T04:04:29.530Z,68.50
2022-09-24T04:06:57.581Z,66.80
2022-09-24T04:09:25.658Z,67.00
2022-09-24T04:11:54.240Z,66.80
2022-09-24T04:14:23.801Z,66.90
2022-09-24T04:16:51.882Z,67.40
2022-09-24T04:19:20.024Z,68.10
2022-09-24T04:21:48.046Z,68.40
2022-09-24T04:24:16.294Z,68.60
2022-09-24T04:26:44.292Z,67.30
2022-09-24T04:29:13.543Z,68.00
2022-09-24T04:31:43.010Z,67.10
2022-09-24T04:34:11.309Z,67.00
2022-09-24T04:36:39.432Z,68.00
2022-09-24T04:39:08.719Z,69.90
2022-09-24T04:41:36.741Z,69.20
2022-09-24T04:44:05.351Z,67.50
2022-09-24T04:46:34.468Z,66.90
2022-09-24T04:49:04.029Z,66.80
2022-09-24T04:51:33.974Z,66.70
2022-09-24T04:54:02.939Z,66.60
2022-09-24T04:56:31.057Z,66.80
2022-09-24T04:58:59.344Z,67.60
2022-09-24T05:01:27.565Z,68.20
2022-09-24T05:03:55.660Z,68.00
2022-09-24T05:06:25.226Z,67.70
2022-09-24T05:08:53.300Z,67.80
2022-09-24T05:11:21.345Z,67.80
2022-09-24T05:13:49.482Z,67.20
2022-09-24T05:16:17.536Z,68.50
2022-09-24T05:18:45.626Z,68.20
2022-09-24T05:21:13.703Z,67.50
2022-09-24T05:23:43.136Z,68.20
2022-09-24T05:26:28.766Z,69.00
2022-09-24T05:28:56.829Z,69.10
2022-09-24T05:31:24.954Z,68.00
2022-09-24T05:33:53.058Z,67.00
2022-09-24T05:36:21.085Z,67.00
2022-09-24T05:38:50.532Z,67.40
2022-09-24T05:41:18.587Z,67.60
2022-09-24T05:43:46.606Z,69.20
2022-09-24T05:46:14.783Z,68.10
2022-09-24T05:48:42.893Z,67.40
2022-09-24T05:51:10.921Z,67.70
2022-09-24T05:53:39.050Z,68.00
2022-09-24T05:56:10.362Z,67.80
2022-09-24T05:58:38.474Z,67.20
2022-09-24T06:01:06.668Z,67.80
2022-09-24T06:03:34.775Z,67.40
2022-09-24T06:06:02.986Z,67.40
2022-09-24T06:08:32.068Z,67.10
2022-09-24T06:11:00.326Z,67.50
2022-09-24T06:13:29.948Z,66.50
2022-09-24T06:16:01.859Z,66.70
2022-09-24T06:18:29.969Z,67.30
2022-09-24T06:21:01.666Z,67.10
2022-09-24T06:23:31.031Z,68.70
2022-09-24T06:25:59.437Z,69.00
2022-09-24T06:28:28.872Z,69.00
2022-09-24T06:30:57.096Z,67.20
2022-09-24T06:33:25.186Z,67.30
2022-09-24T06:35:53.235Z,67.90
2022-09-24T06:38:21.393Z,68.20
2022-09-24T06:40:49.498Z,67.70
2022-09-24T06:43:17.671Z,68.00
2022-09-24T06:45:47.123Z,67.90
2022-09-24T06:48:15.557Z,67.00
2022-09-24T06:50:44.327Z,66.20
2022-09-24T06:53:18.307Z,66.70
2022-09-24T06:55:47.052Z,66.20
2022-09-24T06:58:16.491Z,65.80
2022-09-24T07:00:51.021Z,65.50
2022-09-24T07:03:19.392Z,66.20
2022-09-24T07:05:53.530Z,66.50
2022-09-24T07:08:22.243Z,67.60
2022-09-24T07:10:50.840Z,68.20
2022-09-24T07:13:19.124Z,67.00
2022-09-24T07:15:50.701Z,66.20
2022-09-24T07:18:20.856Z,66.00
2022-09-24T07:20:54.314Z,65.20
2022-09-24T07:23:28.157Z,65.80
2022-09-24T07:26:00.899Z,66.50
2022-09-24T07:28:30.321Z,66.20
2022-09-24T07:31:03.180Z,66.10
2022-09-24T07:33:32.842Z,66.20
2022-09-24T07:36:07.396Z,65.50
2022-09-24T07:38:36.588Z,65.90
2022-09-24T07:41:08.438Z,65.40
2022-09-24T07:43:39.784Z,65.90
2022-09-24T07:46:09.871Z,65.10
2022-09-24T07:48:38.315Z,65.00
2022-09-24T07:51:07.011Z,64.90
2022-09-24T07:53:35.639Z,66.00
2022-09-24T07:56:04.276Z,66.40
2022-09-24T07:58:32.406Z,66.40
2022-09-24T08:01:00.608Z,66.20
2022-09-24T08:03:30.124Z,65.60
2022-09-24T08:06:00.006Z,65.30
2022-09-24T08:08:28.146Z,64.60
2022-09-24T08:10:56.203Z,64.40
2022-09-24T08:13:27.703Z,64.30
2022-09-24T08:16:00.294Z,63.90
2022-09-24T08:18:31.815Z,63.30
2022-09-24T08:21:00.143Z,63.60
2022-09-24T08:23:28.263Z,63.10
2022-09-24T08:25:56.539Z,63.10
2022-09-24T08:28:24.955Z,63.20
2022-09-24T08:30:53.060Z,63.20
2022-09-24T08:33:21.192Z,63.20
2022-09-24T08:35:50.671Z,62.70
2022-09-24T08:38:21.048Z,62.40
2022-09-24T08:40:54.284Z,61.90
2022-09-24T08:43:29.577Z,60.70
2022-09-24T08:46:16.440Z,60.80
2022-09-24T08:48:47.202Z,61.50
2022-09-24T08:51:18.416Z,61.10
2022-09-24T08:53:49.201Z,60.70
2022-09-24T08:56:20.356Z,60.10
2022-09-24T08:58:50.254Z,59.40
2022-09-24T09:01:23.064Z,58.90
2022-09-24T09:03:52.838Z,58.30
2022-09-24T09:06:35.418Z,57.00
2022-09-24T09:09:07.548Z,55.60
2022-09-24T09:11:35.968Z,56.30
2022-09-24T09:14:05.916Z,56.60
2022-09-24T09:16:36.782Z,57.20
2022-09-24T09:19:06.206Z,56.00
2022-09-24T09:21:38.618Z,56.60
2022-09-24T09:24:06.990Z,57.30
2022-09-24T09:26:35.039Z,56.80
2022-09-24T09:29:03.129Z,55.60
2022-09-24T09:31:39.390Z,56.40
2022-09-24T09:34:19.023Z,56.80
2022-09-24T09:36:55.811Z,58.00
2022-09-24T09:39:34.217Z,57.60
2022-09-24T09:42:06.372Z,57.30
2022-09-24T09:44:41.586Z,60.30
2022-09-24T09:47:16.641Z,59.60
2022-09-24T09:49:44.713Z,59.30
2022-09-24T09:52:15.930Z,58.60
2022-09-24T09:54:44.468Z,59.40
2022-09-24T09:57:14.308Z,60.10
2022-09-24T09:59:42.411Z,58.80
2022-09-24T10:02:11.865Z,58.80
2022-09-24T10:04:40.711Z,59.30
2022-09-24T10:07:09.789Z,59.60
2022-09-24T10:09:39.362Z,60.00
2022-09-24T10:12:15.835Z,60.30
2022-09-24T10:14:43.963Z,59.30
2022-09-24T10:17:14.321Z,59.80
2022-09-24T10:19:44.166Z,60.10
2022-09-24T10:22:16.418Z,60.00
2022-09-24T10:24:45.855Z,60.20
2022-09-24T10:27:14.008Z,60.10
2022-09-24T10:29:59.859Z,62.90
2022-09-24T10:32:29.562Z,61.20
2022-09-24T10:34:58.729Z,61.00
2022-09-24T10:37:26.811Z,61.50
2022-09-24T10:40:02.983Z,61.60
2022-09-24T10:42:31.474Z,61.70
2022-09-24T10:45:02.163Z,60.90
2022-09-24T10:47:34.070Z,60.40
2022-09-24T10:50:13.928Z,60.40
2022-09-24T10:52:47.784Z,60.30
2022-09-24T10:55:41.355Z,60.10
2022-09-24T10:58:16.837Z,60.30
2022-09-24T11:00:49.219Z,61.20
2022-09-24T11:03:59.363Z,60.40
2022-09-24T11:06:36.904Z,60.20
2022-09-24T11:09:10.171Z,61.20
2022-09-24T11:11:47.238Z,60.70
2022-09-24T11:14:22.924Z,60.90
2022-09-24T11:17:17.429Z,61.50
2022-09-24T11:20:00.328Z,61.50
2022-09-24T11:22:33.430Z,62.30
2022-09-24T11:25:16.944Z,63.40
2022-09-24T11:27:57.974Z,63.00
2022-09-24T11:30:28.160Z,62.40
2022-09-24T11:33:02.680Z,61.70
2022-09-24T11:35:49.040Z,61.40
2022-09-24T11:38:19.228Z,62.20
2022-09-24T11:41:05.729Z,60.80
2022-09-24T11:43:48.373Z,60.90
2022-09-24T11:46:24.477Z,59.90
2022-09-24T11:49:17.098Z,60.40
2022-09-24T11:51:52.227Z,61.40
2022-09-24T11:54:23.595Z,60.70
2022-09-24T11:56:53.456Z,60.80
2022-09-24T11:59:27.154Z,60.30
2022-09-24T12:01:57.725Z,59.60
2022-09-24T12:04:27.879Z,59.80
2022-09-24T12:06:57.169Z,59.70
2022-09-24T12:09:31.288Z,58.60
2022-09-24T12:12:02.638Z,58.30
2022-09-24T12:14:37.339Z,58.20
2022-09-24T12:17:08.034Z,57.20
2022-09-24T12:19:39.831Z,57.80
2022-09-24T12:22:08.872Z,57.80
2022-09-24T12:24:38.781Z,58.00
2022-09-24T12:27:11.350Z,57.50
2022-09-24T12:30:02.736Z,58.10
2022-09-24T12:32:50.374Z,58.80
2022-09-24T12:35:23.928Z,60.30
2022-09-24T12:37:53.385Z,59.50
2022-09-24T12:40:43.498Z,58.90
2022-09-24T12:43:18.291Z,59.10
2022-09-24T12:45:48.029Z,59.60
2022-09-24T12:48:16.083Z,60.00
2022-09-24T12:50:46.058Z,58.40
2022-09-24T12:53:24.754Z,58.20
2022-09-24T12:55:52.893Z,57.30
2022-09-24T12:58:28.879Z,58.70
2022-09-24T13:01:08.902Z,58.00
2022-09-24T13:03:41.957Z,57.50
2022-09-24T13:06:22.863Z,57.00
2022-09-24T13:08:51.596Z,56.70
2022-09-24T13:11:30.816Z,56.10
2022-09-24T13:14:18.174Z,55.70
2022-09-24T13:16:49.663Z,56.30
2022-09-24T13:19:26.346Z,57.00
2022-09-24T13:21:55.579Z,56.40
2022-09-24T13:24:30.593Z,58.00
2022-09-24T13:27:11.458Z,57.70
2022-09-24T13:29:40.087Z,57.20
2022-09-24T13:32:11.022Z,56.60
2022-09-24T13:34:39.148Z,56.70
2022-09-24T13:37:12.908Z,56.80
2022-09-24T13:39:43.593Z,56.30
2022-09-24T13:42:18.736Z,56.00
2022-09-24T13:44:48.579Z,56.20
2022-09-24T13:47:22.723Z,56.30
2022-09-24T13:49:51.515Z,56.30
2022-09-24T13:52:26.287Z,56.00
2022-09-24T13:54:56.698Z,56.40
2022-09-24T13:57:26.033Z,55.90
2022-09-24T14:00:20.072Z,54.70
2022-09-24T14:03:04.435Z,56.30
2022-09-24T14:05:36.508Z,56.20
2022-09-24T14:08:06.033Z,56.00
2022-09-24T14:10:34.188Z,54.40
2022-09-24T14:13:11.608Z,54.90
2022-09-24T14:15:39.816Z,56.20
2022-09-24T14:18:15.591Z,56.40
2022-09-24T14:20:43.635Z,56.10
2022-09-24T14:23:11.803Z,55.00
2022-09-24T14:25:40.556Z,54.50
2022-09-24T14:28:08.957Z,53.20
2022-09-24T14:30:37.197Z,54.10
2022-09-24T14:33:08.245Z,54.60
2022-09-24T14:35:38.555Z,54.40
2022-09-24T14:38:09.029Z,55.60
2022-09-24T14:40:41.544Z,56.70
2022-09-24T14:43:15.943Z,55.90
2022-09-24T14:45:44.023Z,55.10
2022-09-24T14:48:20.496Z,55.70
2022-09-24T14:50:49.941Z,55.80
2022-09-24T14:53:22.514Z,54.80
2022-09-24T14:55:50.885Z,54.50
2022-09-24T14:58:36.459Z,54.10
2022-09-24T15:01:08.121Z,53.80
2022-09-24T15:03:40.273Z,54.70
2022-09-24T15:06:17.969Z,54.80
2022-09-24T15:08:46.116Z,55.30
2022-09-24T15:11:19.323Z,55.00
2022-09-24T15:13:47.718Z,55.40
2022-09-24T15:16:20.334Z,55.20
2022-09-24T15:18:55.719Z,54.50
2022-09-24T15:21:25.255Z,54.60
2022-09-24T15:23:53.407Z,54.90
2022-09-24T15:26:21.479Z,55.50
2022-09-24T15:28:49.670Z,56.40
2022-09-24T15:31:17.820Z,56.20
2022-09-24T15:33:46.734Z,56.80
2022-09-24T15:36:18.822Z,57.80
2022-09-24T15:38:48.321Z,57.00
2022-09-24T15:41:16.372Z,56.90
2022-09-24T15:43:45.426Z,57.00
2022-09-24T15:46:13.590Z,57.00
2022-09-24T15:48:41.689Z,56.00
2022-09-24T15:51:15.019Z,56.20
2022-09-24T15:53:43.684Z,56.90
2022-09-24T15:56:13.873Z,57.40
2022-09-24T15:58:41.973Z,57.40
2022-09-24T16:01:11.813Z,57.50
2022-09-24T16:03:40.436Z,57.40
2022-09-24T16:06:10.974Z,57.20
2022-09-24T16:08:39.043Z,57.10
2022-09-24T16:11:09.192Z,57.30
2022-09-24T16:13:39.252Z,58.20
2022-09-24T16:16:08.363Z,57.90
2022-09-24T16:18:39.959Z,57.60
2022-09-24T16:21:08.724Z,57.80
2022-09-24T16:23:36.746Z,57.90
2022-09-24T16:26:05.353Z,58.10
2022-09-24T16:28:34.329Z,58.20
2022-09-24T16:31:06.802Z,57.80
2022-09-24T16:33:38.719Z,58.20
2022-09-24T16:36:07.382Z,58.50
2022-09-24T16:38:36.441Z,58.20
2022-09-24T16:41:06.058Z,58.20
2022-09-24T16:43:34.214Z,58.20
2022-09-24T16:46:04.609Z,58.80
2022-09-24T16:48:32.717Z,60.60
2022-09-24T16:51:04.686Z,61.30
2022-09-24T16:53:34.202Z,61.40
2022-09-24T16:56:06.766Z,61.30
2022-09-24T16:58:34.986Z,61.70
2022-09-24T17:01:06.437Z,61.80
2022-09-24T17:03:35.358Z,62.20
2022-09-24T17:06:03.602Z,62.90
2022-09-24T17:08:46.011Z,63.50
2022-09-24T17:11:14.295Z,63.20
2022-09-24T17:13:42.437Z,62.50
2022-09-24T17:16:14.490Z,62.50
2022-09-24T17:18:42.573Z,63.30
2022-09-24T17:21:12.289Z,65.10
2022-09-24T17:23:40.375Z,65.20
2022-09-24T17:26:09.862Z,65.60
2022-09-24T17:28:38.218Z,65.00
2022-09-24T17:31:07.254Z,65.00
2022-09-24T17:33:44.694Z,65.30
2022-09-24T17:36:14.355Z,66.00
2022-09-24T17:38:42.534Z,66.50
2022-09-24T17:41:11.572Z,65.30
2022-09-24T17:43:39.764Z,65.60
2022-09-24T17:46:13.603Z,65.50
2022-09-24T17:48:44.563Z,64.90
2022-09-24T17:51:13.601Z,65.10
2022-09-24T17:53:41.744Z,66.30
2022-09-24T17:56:11.432Z,66.50
2022-09-24T17:58:39.817Z,66.90
2022-09-24T18:01:08.789Z,66.70
2022-09-24T18:03:36.960Z,67.20
2022-09-24T18:06:07.701Z,67.40
2022-09-24T18:08:37.271Z,67.50
2022-09-24T18:11:06.023Z,67.10
2022-09-24T18:13:35.100Z,66.40
2022-09-24T18:16:04.695Z,66.90
2022-09-24T18:18:33.349Z,67.20
2022-09-24T18:21:02.289Z,67.00
2022-09-24T18:23:35.191Z,67.40
2022-09-24T18:26:10.902Z,68.00
2022-09-24T18:28:40.746Z,67.90
2022-09-24T18:31:10.258Z,67.60
2022-09-24T18:33:39.149Z,68.20
2022-09-24T18:36:09.060Z,67.90
2022-09-24T18:38:40.102Z,68.70
2022-09-24T18:41:09.567Z,67.20
2022-09-24T18:43:41.838Z,67.00
2022-09-24T18:46:11.823Z,67.30
2022-09-24T18:48:40.563Z,67.40
2022-09-24T18:51:09.400Z,67.60
2022-09-24T18:53:38.851Z,67.60
2022-09-24T18:56:08.096Z,67.60
2022-09-24T18:58:36.622Z,67.80
2022-09-24T19:01:09.453Z,68.40
2022-09-24T19:03:39.740Z,68.40
2022-09-24T19:06:10.591Z,68.00
2022-09-24T19:08:40.219Z,67.50
2022-09-24T19:11:09.392Z,67.60
2022-09-24T19:13:38.603Z,67.60
2022-09-24T19:16:07.594Z,67.40
2022-09-24T19:18:36.150Z,68.40
2022-09-24T19:21:06.601Z,71.90
2022-09-24T19:23:37.541Z,70.20
2022-09-24T19:26:08.369Z,70.20
2022-09-24T19:28:36.771Z,70.00
2022-09-24T19:31:07.248Z,72.40
2022-09-24T19:33:35.425Z,72.30
2022-09-24T19:36:04.738Z,70.90
2022-09-24T19:38:35.747Z,75.40
2022-09-24T19:41:05.637Z,78.00
2022-09-24T19:43:35.196Z,75.30
2022-09-24T19:46:06.142Z,73.50
2022-09-24T19:48:36.761Z,73.80
2022-09-24T19:51:05.906Z,74.80
2022-09-24T19:53:34.301Z,72.70
2022-09-24T19:56:02.774Z,72.30
2022-09-24T19:58:31.895Z,72.00
2022-09-24T20:01:03.245Z,71.60
2022-09-24T20:03:32.827Z,71.60
2022-09-24T20:06:00.914Z,72.10
2022-09-24T20:08:28.951Z,73.20
2022-09-24T20:10:57.022Z,72.40
2022-09-24T20:13:25.067Z,71.10
2022-09-24T20:15:58.352Z,71.40
2022-09-24T20:18:27.900Z,70.90
2022-09-24T20:20:56.029Z,70.20
2022-09-24T20:23:26.800Z,69.60
2022-09-24T20:26:12.346Z,69.20
2022-09-24T20:28:40.592Z,69.20
2022-09-24T20:31:11.060Z,69.90
2022-09-24T20:33:41.715Z,70.30
2022-09-24T20:36:15.885Z,70.50
2022-09-24T20:38:45.919Z,71.20
2022-09-24T20:41:15.019Z,70.50
2022-09-24T20:43:43.587Z,70.40
2022-09-24T20:46:14.086Z,70.10
2022-09-24T20:48:43.595Z,69.60
2022-09-24T20:51:11.857Z,69.50
2022-09-24T20:53:39.929Z,70.00
2022-09-24T20:56:09.338Z,70.60
2022-09-24T20:58:37.443Z,71.70
2022-09-24T21:01:05.617Z,71.60
2022-09-24T21:03:50.331Z,71.00
2022-09-24T21:06:22.971Z,70.90
2022-09-24T21:08:51.196Z,71.00
2022-09-24T21:11:19.991Z,70.90
2022-09-24T21:13:50.239Z,72.30
2022-09-24T21:16:19.894Z,72.60
2022-09-24T21:18:48.089Z,72.90
2022-09-24T21:21:19.988Z,72.20
2022-09-24T21:23:48.714Z,70.90
2022-09-24T21:26:18.561Z,71.60
2022-09-24T21:28:47.656Z,70.90
2022-09-24T21:31:16.671Z,71.10
2022-09-24T21:33:46.570Z,70.80
2022-09-24T21:36:18.631Z,70.40
2022-09-24T21:38:54.262Z,70.20
2022-09-24T21:41:22.734Z,70.10
2022-09-24T21:43:50.780Z,70.60
2022-09-24T21:46:19.115Z,72.20
2022-09-24T21:48:47.249Z,73.10
2022-09-24T21:51:19.565Z,71.90
2022-09-24T21:53:49.015Z,71.40
2022-09-24T21:56:18.964Z,72.00
2022-09-24T21:58:47.080Z,72.70
2022-09-24T22:01:17.088Z,73.80
2022-09-24T22:03:46.806Z,71.90
2022-09-24T22:06:15.224Z,72.80
2022-09-24T22:08:45.016Z,74.70
2022-09-24T22:11:14.612Z,74.80
2022-09-24T22:13:43.012Z,74.40
2022-09-24T22:16:11.901Z,74.20
2022-09-24T22:18:40.083Z,72.90
2022-09-24T22:21:08.816Z,71.50
2022-09-24T22:23:36.842Z,71.30
2022-09-24T22:26:05.039Z,73.10
2022-09-24T22:28:34.599Z,73.70
2022-09-24T22:31:06.587Z,72.60
2022-09-24T22:33:52.072Z,71.60
2022-09-24T22:36:20.595Z,70.60
2022-09-24T22:38:49.922Z,70.90
2022-09-24T22:41:18.079Z,72.30
2022-09-24T22:43:47.905Z,71.40
2022-09-24T22:46:16.686Z,71.10
2022-09-24T22:48:45.562Z,70.60
2022-09-24T22:51:13.797Z,71.00
2022-09-24T22:53:42.438Z,72.10
2022-09-24T22:56:11.381Z,71.80
2022-09-24T22:58:41.315Z,71.20
2022-09-24T23:01:11.888Z,71.20
2022-09-24T23:03:40.199Z,70.70
2022-09-24T23:06:09.092Z,71.60
2022-09-24T23:08:37.871Z,71.60
2022-09-24T23:11:07.807Z,71.50
2022-09-24T23:13:35.884Z,71.80
2022-09-24T23:16:13.003Z,72.90
2022-09-24T23:18:41.378Z,72.60
2022-09-24T23:21:10.895Z,71.50
2022-09-24T23:23:39.170Z,71.10
2022-09-24T23:26:08.163Z,70.70
2022-09-24T23:28:36.641Z,71.10
2022-09-24T23:31:04.865Z,71.00
2022-09-24T23:33:35.617Z,70.80
2022-09-24T23:36:04.252Z,71.90
2022-09-24T23:38:32.418Z,72.10
2022-09-24T23:41:00.812Z,71.40
2022-09-24T23:43:28.948Z,72.40
2022-09-24T23:45:57.106Z,73.50
2022-09-24T23:48:25.174Z,73.20
2022-09-24T23:50:54.747Z,73.40
2022-09-24T23:53:22.895Z,73.70
2022-09-24T23:55:51.066Z,73.80
2022-09-24T23:58:20.280Z,73.50
